sensor_id;sensor_type;location;lat;lon;timestamp;P1;durP1;ratioP1;P2;durP2;ratioP2
8260;SDS011;64115;50.170;8.242;2023-03-01T00:00:18;10.23;;;7.20;;
8260;SDS011;64115;50.170;8.242;2023-03-01T00:02:46;8.40;;;7.27;;
8260;SDS011;64115;50.170;8.242;2023-03-01T00:05:14;8.13;;;7.30;;
8260;SDS011;64115;50.170;8.242;2023-03-01T00:07:41;10.97;;;7.43;;
8260;SDS011;64115;50.170;8.242;2023-03-01T00:10:09;11.17;;;7.57;;
8260;SDS011;64115;50.170;8.242;2023-03-01T00:12:36;9.40;;;7.53;;
8260;SDS011;64115;50.170;8.242;2023-03-01T00:15:04;10.73;;;7.67;;
8260;SDS011;64115;50.170;8.242;2023-03-01T00:17:31;9.40;;;7.80;;
8260;SDS011;64115;50.170;8.242;2023-03-01T00:19:58;9.73;;;7.30;;
8260;SDS011;64115;50.170;8.242;2023-03-01T00:22:27;12.00;;;8.37;;
8260;SDS011;64115;50.170;8.242;2023-03-01T00:24:54;9.53;;;7.30;;
8260;SDS011;64115;50.170;8.242;2023-03-01T00:27:21;10.97;;;7.73;;
8260;SDS011;64115;50.170;8.242;2023-03-01T00:29:48;10.83;;;7.70;;
8260;SDS011;64115;50.170;8.242;2023-03-01T00:32:15;9.73;;;7.90;;
8260;SDS011;64115;50.170;8.242;2023-03-01T00:34:42;10.73;;;7.77;;
8260;SDS011;64115;50.170;8.242;2023-03-01T00:37:19;11.33;;;8.13;;
8260;SDS011;64115;50.170;8.242;2023-03-01T00:39:48;10.47;;;8.03;;
8260;SDS011;64115;50.170;8.242;2023-03-01T00:42:15;11.00;;;8.00;;
8260;SDS011;64115;50.170;8.242;2023-03-01T00:44:43;12.67;;;8.30;;
8260;SDS011;64115;50.170;8.242;2023-03-01T00:47:10;10.20;;;8.00;;
8260;SDS011;64115;50.170;8.242;2023-03-01T00:49:37;10.03;;;7.87;;
8260;SDS011;64115;50.170;8.242;2023-03-01T00:52:04;10.20;;;7.97;;
8260;SDS011;64115;50.170;8.242;2023-03-01T00:54:31;10.03;;;8.17;;
8260;SDS011;64115;50.170;8.242;2023-03-01T00:56:59;10.87;;;8.30;;
8260;SDS011;64115;50.170;8.242;2023-03-01T00:59:26;12.60;;;8.23;;
8260;SDS011;64115;50.170;8.242;2023-03-01T01:01:53;13.83;;;8.53;;
8260;SDS011;64115;50.170;8.242;2023-03-01T01:04:20;12.13;;;8.53;;
8260;SDS011;64115;50.170;8.242;2023-03-01T01:06:47;10.37;;;7.93;;
8260;SDS011;64115;50.170;8.242;2023-03-01T01:09:15;10.67;;;8.00;;
8260;SDS011;64115;50.170;8.242;2023-03-01T01:11:43;11.67;;;8.43;;
8260;SDS011;64115;50.170;8.242;2023-03-01T01:14:13;10.23;;;8.10;;
8260;SDS011;64115;50.170;8.242;2023-03-01T01:16:40;9.30;;;8.07;;
8260;SDS011;64115;50.170;8.242;2023-03-01T01:19:07;10.03;;;7.93;;
8260;SDS011;64115;50.170;8.242;2023-03-01T01:21:35;10.43;;;8.20;;
8260;SDS011;64115;50.170;8.242;2023-03-01T01:24:02;11.13;;;8.57;;
8260;SDS011;64115;50.170;8.242;2023-03-01T01:26:31;10.77;;;8.37;;
8260;SDS011;64115;50.170;8.242;2023-03-01T01:29:00;10.70;;;8.27;;
8260;SDS011;64115;50.170;8.242;2023-03-01T01:31:31;9.93;;;7.87;;
8260;SDS011;64115;50.170;8.242;2023-03-01T01:33:59;10.97;;;8.00;;
8260;SDS011;64115;50.170;8.242;2023-03-01T01:36:27;11.83;;;8.50;;
8260;SDS011;64115;50.170;8.242;2023-03-01T01:38:57;10.33;;;8.27;;
8260;SDS011;64115;50.170;8.242;2023-03-01T01:41:25;11.00;;;8.07;;
8260;SDS011;64115;50.170;8.242;2023-03-01T01:46:41;11.77;;;8.73;;
8260;SDS011;64115;50.170;8.242;2023-03-01T01:49:15;13.50;;;9.17;;
8260;SDS011;64115;50.170;8.242;2023-03-01T01:51:47;12.80;;;8.43;;
8260;SDS011;64115;50.170;8.242;2023-03-01T01:54:16;13.27;;;9.33;;
8260;SDS011;64115;50.170;8.242;2023-03-01T01:56:48;11.10;;;8.40;;
8260;SDS011;64115;50.170;8.242;2023-03-01T01:59:18;13.43;;;8.60;;
8260;SDS011;64115;50.170;8.242;2023-03-01T02:01:51;11.27;;;8.17;;
8260;SDS011;64115;50.170;8.242;2023-03-01T02:04:18;10.93;;;8.67;;
8260;SDS011;64115;50.170;8.242;2023-03-01T02:06:48;13.40;;;9.67;;
8260;SDS011;64115;50.170;8.242;2023-03-01T02:09:19;12.03;;;8.97;;
8260;SDS011;64115;50.170;8.242;2023-03-01T02:11:48;13.67;;;9.27;;
8260;SDS011;64115;50.170;8.242;2023-03-01T02:14:16;13.13;;;9.67;;
8260;SDS011;64115;50.170;8.242;2023-03-01T02:16:44;13.17;;;8.53;;
8260;SDS011;64115;50.170;8.242;2023-03-01T02:19:13;13.57;;;9.17;;
8260;SDS011;64115;50.170;8.242;2023-03-01T02:21:56;12.43;;;8.53;;
8260;SDS011;64115;50.170;8.242;2023-03-01T02:24:32;11.97;;;8.97;;
8260;SDS011;64115;50.170;8.242;2023-03-01T02:27:08;13.07;;;8.60;;
8260;SDS011;64115;50.170;8.242;2023-03-01T02:29:38;10.77;;;8.20;;
8260;SDS011;64115;50.170;8.242;2023-03-01T02:32:05;11.47;;;8.97;;
8260;SDS011;64115;50.170;8.242;2023-03-01T02:34:32;15.40;;;9.57;;
8260;SDS011;64115;50.170;8.242;2023-03-01T02:37:01;13.00;;;9.67;;
8260;SDS011;64115;50.170;8.242;2023-03-01T02:39:31;13.10;;;9.60;;
8260;SDS011;64115;50.170;8.242;2023-03-01T02:42:03;14.63;;;9.60;;
8260;SDS011;64115;50.170;8.242;2023-03-01T02:44:31;12.47;;;9.37;;
8260;SDS011;64115;50.170;8.242;2023-03-01T02:47:00;15.17;;;10.33;;
8260;SDS011;64115;50.170;8.242;2023-03-01T02:49:30;15.70;;;10.27;;
8260;SDS011;64115;50.170;8.242;2023-03-01T02:52:08;13.60;;;9.60;;
8260;SDS011;64115;50.170;8.242;2023-03-01T02:54:55;15.10;;;9.23;;
8260;SDS011;64115;50.170;8.242;2023-03-01T02:57:25;13.53;;;9.57;;
8260;SDS011;64115;50.170;8.242;2023-03-01T02:59:55;15.70;;;9.47;;
8260;SDS011;64115;50.170;8.242;2023-03-01T03:02:25;13.00;;;10.17;;
8260;SDS011;64115;50.170;8.242;2023-03-01T03:05:03;13.20;;;9.90;;
8260;SDS011;64115;50.170;8.242;2023-03-01T03:07:31;15.03;;;9.83;;
8260;SDS011;64115;50.170;8.242;2023-03-01T03:09:59;13.27;;;10.07;;
8260;SDS011;64115;50.170;8.242;2023-03-01T03:12:26;15.13;;;10.20;;
8260;SDS011;64115;50.170;8.242;2023-03-01T03:14:53;13.20;;;10.00;;
8260;SDS011;64115;50.170;8.242;2023-03-01T03:17:20;14.77;;;10.17;;
8260;SDS011;64115;50.170;8.242;2023-03-01T03:19:49;14.27;;;9.70;;
8260;SDS011;64115;50.170;8.242;2023-03-01T03:22:16;13.77;;;10.30;;
8260;SDS011;64115;50.170;8.242;2023-03-01T03:24:43;15.50;;;10.10;;
8260;SDS011;64115;50.170;8.242;2023-03-01T03:27:10;15.03;;;10.00;;
8260;SDS011;64115;50.170;8.242;2023-03-01T03:29:37;15.50;;;10.17;;
8260;SDS011;64115;50.170;8.242;2023-03-01T03:32:04;14.60;;;10.17;;
8260;SDS011;64115;50.170;8.242;2023-03-01T03:34:31;12.37;;;9.50;;
8260;SDS011;64115;50.170;8.242;2023-03-01T03:36:59;14.90;;;10.37;;
8260;SDS011;64115;50.170;8.242;2023-03-01T03:39:26;16.47;;;10.07;;
8260;SDS011;64115;50.170;8.242;2023-03-01T03:42:00;16.40;;;10.63;;
8260;SDS011;64115;50.170;8.242;2023-03-01T03:44:27;14.83;;;10.07;;
8260;SDS011;64115;50.170;8.242;2023-03-01T03:46:54;16.57;;;10.57;;
8260;SDS011;64115;50.170;8.242;2023-03-01T03:49:21;17.50;;;10.40;;
8260;SDS011;64115;50.170;8.242;2023-03-01T03:51:48;15.17;;;10.53;;
8260;SDS011;64115;50.170;8.242;2023-03-01T03:54:17;16.77;;;11.13;;
8260;SDS011;64115;50.170;8.242;2023-03-01T03:56:44;16.70;;;11.13;;
8260;SDS011;64115;50.170;8.242;2023-03-01T03:59:11;15.70;;;11.20;;
8260;SDS011;64115;50.170;8.242;2023-03-01T04:01:38;17.20;;;11.57;;
8260;SDS011;64115;50.170;8.242;2023-03-01T04:04:05;17.17;;;10.43;;
8260;SDS011;64115;50.170;8.242;2023-03-01T04:06:32;15.17;;;10.57;;
8260;SDS011;64115;50.170;8.242;2023-03-01T04:08:59;16.57;;;11.07;;
8260;SDS011;64115;50.170;8.242;2023-03-01T04:11:29;16.83;;;10.97;;
8260;SDS011;64115;50.170;8.242;2023-03-01T04:13:57;17.30;;;10.87;;
8260;SDS011;64115;50.170;8.242;2023-03-01T04:16:25;18.33;;;11.23;;
8260;SDS011;64115;50.170;8.242;2023-03-01T04:18:52;16.57;;;10.63;;
8260;SDS011;64115;50.170;8.242;2023-03-01T04:21:20;16.43;;;10.90;;
8260;SDS011;64115;50.170;8.242;2023-03-01T04:23:47;15.97;;;10.33;;
8260;SDS011;64115;50.170;8.242;2023-03-01T04:26:17;21.20;;;11.93;;
8260;SDS011;64115;50.170;8.242;2023-03-01T04:28:46;19.70;;;11.37;;
8260;SDS011;64115;50.170;8.242;2023-03-01T04:31:15;20.60;;;11.30;;
8260;SDS011;64115;50.170;8.242;2023-03-01T04:33:46;17.67;;;11.57;;
8260;SDS011;64115;50.170;8.242;2023-03-01T04:36:16;20.07;;;11.60;;
8260;SDS011;64115;50.170;8.242;2023-03-01T04:38:44;16.37;;;11.10;;
8260;SDS011;64115;50.170;8.242;2023-03-01T04:41:12;19.33;;;11.43;;
8260;SDS011;64115;50.170;8.242;2023-03-01T04:43:40;18.80;;;10.33;;
8260;SDS011;64115;50.170;8.242;2023-03-01T04:46:10;19.70;;;11.37;;
8260;SDS011;64115;50.170;8.242;2023-03-01T04:48:39;15.47;;;11.00;;
8260;SDS011;64115;50.170;8.242;2023-03-01T04:51:07;15.83;;;11.13;;
8260;SDS011;64115;50.170;8.242;2023-03-01T04:53:34;20.70;;;12.27;;
8260;SDS011;64115;50.170;8.242;2023-03-01T04:56:02;19.53;;;11.20;;
8260;SDS011;64115;50.170;8.242;2023-03-01T04:58:30;20.20;;;12.03;;
8260;SDS011;64115;50.170;8.242;2023-03-01T05:00:57;15.87;;;11.57;;
8260;SDS011;64115;50.170;8.242;2023-03-01T05:03:25;18.90;;;11.67;;
8260;SDS011;64115;50.170;8.242;2023-03-01T05:05:53;18.27;;;12.07;;
8260;SDS011;64115;50.170;8.242;2023-03-01T05:08:20;17.23;;;11.27;;
8260;SDS011;64115;50.170;8.242;2023-03-01T05:10:48;17.63;;;11.93;;
8260;SDS011;64115;50.170;8.242;2023-03-01T05:13:17;18.27;;;11.73;;
8260;SDS011;64115;50.170;8.242;2023-03-01T05:15:47;17.77;;;11.60;;
8260;SDS011;64115;50.170;8.242;2023-03-01T05:18:20;18.47;;;11.67;;
8260;SDS011;64115;50.170;8.242;2023-03-01T05:20:52;19.73;;;11.23;;
8260;SDS011;64115;50.170;8.242;2023-03-01T05:23:21;22.30;;;11.83;;
8260;SDS011;64115;50.170;8.242;2023-03-01T05:25:48;17.20;;;10.50;;
8260;SDS011;64115;50.170;8.242;2023-03-01T05:28:17;17.83;;;11.60;;
8260;SDS011;64115;50.170;8.242;2023-03-01T05:30:45;18.57;;;11.83;;
8260;SDS011;64115;50.170;8.242;2023-03-01T05:33:12;18.07;;;12.20;;
8260;SDS011;64115;50.170;8.242;2023-03-01T05:35:39;17.13;;;11.47;;
8260;SDS011;64115;50.170;8.242;2023-03-01T05:38:08;18.47;;;12.13;;
8260;SDS011;64115;50.170;8.242;2023-03-01T05:40:38;17.00;;;11.40;;
8260;SDS011;64115;50.170;8.242;2023-03-01T05:43:06;18.67;;;11.77;;
8260;SDS011;64115;50.170;8.242;2023-03-01T05:45:35;17.50;;;11.40;;
8260;SDS011;64115;50.170;8.242;2023-03-01T05:48:03;22.03;;;12.40;;
8260;SDS011;64115;50.170;8.242;2023-03-01T05:50:32;19.90;;;11.80;;
8260;SDS011;64115;50.170;8.242;2023-03-01T05:53:00;19.30;;;12.03;;
8260;SDS011;64115;50.170;8.242;2023-03-01T05:55:31;20.50;;;12.13;;
8260;SDS011;64115;50.170;8.242;2023-03-01T05:57:59;18.17;;;11.77;;
8260;SDS011;64115;50.170;8.242;2023-03-01T06:00:26;17.83;;;11.73;;
8260;SDS011;64115;50.170;8.242;2023-03-01T06:02:54;17.07;;;12.10;;
8260;SDS011;64115;50.170;8.242;2023-03-01T06:05:22;17.23;;;11.90;;
8260;SDS011;64115;50.170;8.242;2023-03-01T06:07:50;18.13;;;12.03;;
8260;SDS011;64115;50.170;8.242;2023-03-01T06:10:18;18.13;;;11.27;;
8260;SDS011;64115;50.170;8.242;2023-03-01T06:12:48;19.27;;;12.17;;
8260;SDS011;64115;50.170;8.242;2023-03-01T06:15:15;17.67;;;11.80;;
8260;SDS011;64115;50.170;8.242;2023-03-01T06:17:43;19.10;;;12.57;;
8260;SDS011;64115;50.170;8.242;2023-03-01T06:20:12;19.57;;;12.30;;
8260;SDS011;64115;50.170;8.242;2023-03-01T06:22:41;19.43;;;12.93;;
8260;SDS011;64115;50.170;8.242;2023-03-01T06:25:09;19.10;;;11.97;;
8260;SDS011;64115;50.170;8.242;2023-03-01T06:27:37;18.87;;;11.97;;
8260;SDS011;64115;50.170;8.242;2023-03-01T06:30:07;20.27;;;12.50;;
8260;SDS011;64115;50.170;8.242;2023-03-01T06:32:36;18.87;;;12.27;;
8260;SDS011;64115;50.170;8.242;2023-03-01T06:35:07;20.87;;;12.83;;
8260;SDS011;64115;50.170;8.242;2023-03-01T06:37:35;20.73;;;12.80;;
8260;SDS011;64115;50.170;8.242;2023-03-01T06:40:03;18.70;;;12.23;;
8260;SDS011;64115;50.170;8.242;2023-03-01T06:42:33;16.17;;;11.93;;
8260;SDS011;64115;50.170;8.242;2023-03-01T06:45:00;24.87;;;12.87;;
8260;SDS011;64115;50.170;8.242;2023-03-01T06:47:29;19.50;;;12.00;;
8260;SDS011;64115;50.170;8.242;2023-03-01T06:49:56;17.50;;;11.33;;
8260;SDS011;64115;50.170;8.242;2023-03-01T06:52:23;17.90;;;12.03;;
8260;SDS011;64115;50.170;8.242;2023-03-01T06:54:50;18.43;;;12.00;;
8260;SDS011;64115;50.170;8.242;2023-03-01T06:57:16;22.30;;;12.10;;
8260;SDS011;64115;50.170;8.242;2023-03-01T06:59:43;18.20;;;11.93;;
8260;SDS011;64115;50.170;8.242;2023-03-01T07:02:10;18.07;;;12.10;;
8260;SDS011;64115;50.170;8.242;2023-03-01T07:04:39;18.57;;;12.40;;
8260;SDS011;64115;50.170;8.242;2023-03-01T07:07:09;19.43;;;12.30;;
8260;SDS011;64115;50.170;8.242;2023-03-01T07:09:36;18.27;;;11.97;;
8260;SDS011;64115;50.170;8.242;2023-03-01T07:12:04;18.87;;;12.00;;
8260;SDS011;64115;50.170;8.242;2023-03-01T07:14:31;17.77;;;11.67;;
8260;SDS011;64115;50.170;8.242;2023-03-01T07:16:59;17.07;;;11.47;;
8260;SDS011;64115;50.170;8.242;2023-03-01T07:19:26;17.00;;;12.27;;
8260;SDS011;64115;50.170;8.242;2023-03-01T07:21:54;16.93;;;11.63;;
8260;SDS011;64115;50.170;8.242;2023-03-01T07:24:22;19.33;;;12.00;;
8260;SDS011;64115;50.170;8.242;2023-03-01T07:26:49;15.67;;;11.17;;
8260;SDS011;64115;50.170;8.242;2023-03-01T07:29:16;14.97;;;10.77;;
8260;SDS011;64115;50.170;8.242;2023-03-01T07:31:44;17.93;;;11.83;;
8260;SDS011;64115;50.170;8.242;2023-03-01T07:34:11;15.07;;;11.23;;
8260;SDS011;64115;50.170;8.242;2023-03-01T07:36:38;16.03;;;10.83;;
8260;SDS011;64115;50.170;8.242;2023-03-01T07:39:09;17.30;;;11.13;;
8260;SDS011;64115;50.170;8.242;2023-03-01T07:41:36;14.20;;;10.37;;
8260;SDS011;64115;50.170;8.242;2023-03-01T07:44:04;13.63;;;10.57;;
8260;SDS011;64115;50.170;8.242;2023-03-01T07:46:31;15.77;;;10.70;;
8260;SDS011;64115;50.170;8.242;2023-03-01T07:48:58;13.57;;;10.17;;
8260;SDS011;64115;50.170;8.242;2023-03-01T07:51:25;13.47;;;10.33;;
8260;SDS011;64115;50.170;8.242;2023-03-01T07:53:52;15.80;;;10.60;;
8260;SDS011;64115;50.170;8.242;2023-03-01T07:56:21;14.70;;;10.67;;
8260;SDS011;64115;50.170;8.242;2023-03-01T07:58:48;16.27;;;10.23;;
8260;SDS011;64115;50.170;8.242;2023-03-01T08:01:17;15.00;;;10.63;;
8260;SDS011;64115;50.170;8.242;2023-03-01T08:03:45;13.90;;;9.93;;
8260;SDS011;64115;50.170;8.242;2023-03-01T08:06:13;15.03;;;10.83;;
8260;SDS011;64115;50.170;8.242;2023-03-01T08:08:41;14.47;;;11.47;;
8260;SDS011;64115;50.170;8.242;2023-03-01T08:11:10;13.97;;;10.50;;
8260;SDS011;64115;50.170;8.242;2023-03-01T08:13:39;15.80;;;10.37;;
8260;SDS011;64115;50.170;8.242;2023-03-01T08:16:07;15.23;;;11.23;;
8260;SDS011;64115;50.170;8.242;2023-03-01T08:18:36;16.50;;;11.10;;
8260;SDS011;64115;50.170;8.242;2023-03-01T08:21:04;15.00;;;10.37;;
8260;SDS011;64115;50.170;8.242;2023-03-01T08:23:33;16.13;;;10.47;;
8260;SDS011;64115;50.170;8.242;2023-03-01T08:26:03;15.90;;;11.00;;
8260;SDS011;64115;50.170;8.242;2023-03-01T08:28:32;14.13;;;10.53;;
8260;SDS011;64115;50.170;8.242;2023-03-01T08:31:00;13.27;;;10.43;;
8260;SDS011;64115;50.170;8.242;2023-03-01T08:33:27;13.60;;;9.90;;
8260;SDS011;64115;50.170;8.242;2023-03-01T08:36:01;15.43;;;10.77;;
8260;SDS011;64115;50.170;8.242;2023-03-01T08:38:29;14.50;;;10.70;;
8260;SDS011;64115;50.170;8.242;2023-03-01T08:40:58;18.60;;;10.60;;
8260;SDS011;64115;50.170;8.242;2023-03-01T08:43:26;15.90;;;10.57;;
8260;SDS011;64115;50.170;8.242;2023-03-01T08:45:53;17.80;;;10.67;;
8260;SDS011;64115;50.170;8.242;2023-03-01T08:48:22;14.23;;;10.00;;
8260;SDS011;64115;50.170;8.242;2023-03-01T08:50:49;15.73;;;10.57;;
8260;SDS011;64115;50.170;8.242;2023-03-01T08:53:16;13.70;;;9.60;;
8260;SDS011;64115;50.170;8.242;2023-03-01T08:55:43;16.17;;;10.73;;
8260;SDS011;64115;50.170;8.242;2023-03-01T08:58:10;14.83;;;10.53;;
8260;SDS011;64115;50.170;8.242;2023-03-01T09:00:38;15.03;;;10.20;;
8260;SDS011;64115;50.170;8.242;2023-03-01T09:03:05;16.03;;;10.70;;
8260;SDS011;64115;50.170;8.242;2023-03-01T09:05:33;15.13;;;10.50;;
8260;SDS011;64115;50.170;8.242;2023-03-01T09:08:01;13.03;;;10.03;;
8260;SDS011;64115;50.170;8.242;2023-03-01T09:10:29;13.60;;;10.27;;
8260;SDS011;64115;50.170;8.242;2023-03-01T09:12:56;15.30;;;10.63;;
8260;SDS011;64115;50.170;8.242;2023-03-01T09:15:23;13.17;;;10.57;;
8260;SDS011;64115;50.170;8.242;2023-03-01T09:17:50;13.17;;;10.07;;
8260;SDS011;64115;50.170;8.242;2023-03-01T09:20:17;13.50;;;10.70;;
8260;SDS011;64115;50.170;8.242;2023-03-01T09:22:46;13.57;;;10.10;;
8260;SDS011;64115;50.170;8.242;2023-03-01T09:25:13;16.90;;;9.43;;
8260;SDS011;64115;50.170;8.242;2023-03-01T09:27:40;15.00;;;10.23;;
8260;SDS011;64115;50.170;8.242;2023-03-01T09:30:07;13.23;;;9.87;;
8260;SDS011;64115;50.170;8.242;2023-03-01T09:32:36;10.73;;;8.03;;
8260;SDS011;64115;50.170;8.242;2023-03-01T09:35:07;11.97;;;8.97;;
8260;SDS011;64115;50.170;8.242;2023-03-01T09:37:35;14.37;;;10.40;;
8260;SDS011;64115;50.170;8.242;2023-03-01T09:40:04;14.93;;;10.17;;
8260;SDS011;64115;50.170;8.242;2023-03-01T09:42:34;14.57;;;10.43;;
8260;SDS011;64115;50.170;8.242;2023-03-01T09:45:03;15.87;;;10.47;;
8260;SDS011;64115;50.170;8.242;2023-03-01T09:47:32;15.13;;;11.03;;
8260;SDS011;64115;50.170;8.242;2023-03-01T09:50:02;13.60;;;9.87;;
8260;SDS011;64115;50.170;8.242;2023-03-01T09:52:34;12.43;;;9.37;;
8260;SDS011;64115;50.170;8.242;2023-03-01T09:55:10;13.73;;;9.87;;
8260;SDS011;64115;50.170;8.242;2023-03-01T09:57:41;14.90;;;9.97;;
8260;SDS011;64115;50.170;8.242;2023-03-01T10:00:19;14.77;;;11.10;;
8260;SDS011;64115;50.170;8.242;2023-03-01T10:03:02;14.20;;;10.43;;
8260;SDS011;64115;50.170;8.242;2023-03-01T10:05:38;13.83;;;9.60;;
8260;SDS011;64115;50.170;8.242;2023-03-01T10:11:05;13.67;;;10.23;;
8260;SDS011;64115;50.170;8.242;2023-03-01T10:13:50;13.97;;;10.37;;
8260;SDS011;64115;50.170;8.242;2023-03-01T10:16:24;13.47;;;10.37;;
8260;SDS011;64115;50.170;8.242;2023-03-01T10:18:59;15.07;;;10.20;;
8260;SDS011;64115;50.170;8.242;2023-03-01T10:21:29;17.53;;;10.83;;
8260;SDS011;64115;50.170;8.242;2023-03-01T10:23:58;13.67;;;9.47;;
8260;SDS011;64115;50.170;8.242;2023-03-01T10:26:39;13.00;;;9.57;;
8260;SDS011;64115;50.170;8.242;2023-03-01T10:29:13;13.53;;;10.40;;
8260;SDS011;64115;50.170;8.242;2023-03-01T10:31:41;16.03;;;10.53;;
8260;SDS011;64115;50.170;8.242;2023-03-01T10:34:12;13.90;;;8.70;;
8260;SDS011;64115;50.170;8.242;2023-03-01T10:36:41;16.10;;;9.93;;
8260;SDS011;64115;50.170;8.242;2023-03-01T10:39:16;13.10;;;9.90;;
8260;SDS011;64115;50.170;8.242;2023-03-01T10:41:56;16.77;;;11.17;;
8260;SDS011;64115;50.170;8.242;2023-03-01T10:44:38;11.13;;;9.23;;
8260;SDS011;64115;50.170;8.242;2023-03-01T10:47:13;13.03;;;9.23;;
8260;SDS011;64115;50.170;8.242;2023-03-01T10:49:52;13.27;;;10.17;;
8260;SDS011;64115;50.170;8.242;2023-03-01T10:52:25;17.67;;;10.10;;
8260;SDS011;64115;50.170;8.242;2023-03-01T10:55:01;10.83;;;9.20;;
8260;SDS011;64115;50.170;8.242;2023-03-01T10:57:34;13.17;;;9.37;;
8260;SDS011;64115;50.170;8.242;2023-03-01T11:00:19;14.93;;;10.70;;
8260;SDS011;64115;50.170;8.242;2023-03-01T11:02:50;9.87;;;8.53;;
8260;SDS011;64115;50.170;8.242;2023-03-01T11:05:29;12.50;;;9.10;;
8260;SDS011;64115;50.170;8.242;2023-03-01T11:07:58;12.03;;;9.40;;
8260;SDS011;64115;50.170;8.242;2023-03-01T11:10:28;13.03;;;9.33;;
8260;SDS011;64115;50.170;8.242;2023-03-01T11:13:08;11.97;;;8.53;;
8260;SDS011;64115;50.170;8.242;2023-03-01T11:15:41;12.03;;;9.47;;
8260;SDS011;64115;50.170;8.242;2023-03-01T11:18:18;11.07;;;9.37;;
8260;SDS011;64115;50.170;8.242;2023-03-01T11:20:46;12.23;;;9.07;;
8260;SDS011;64115;50.170;8.242;2023-03-01T11:23:15;12.43;;;9.60;;
8260;SDS011;64115;50.170;8.242;2023-03-01T11:25:43;10.83;;;8.97;;
8260;SDS011;64115;50.170;8.242;2023-03-01T11:28:16;11.67;;;8.97;;
8260;SDS011;64115;50.170;8.242;2023-03-01T11:30:47;11.50;;;8.60;;
8260;SDS011;64115;50.170;8.242;2023-03-01T11:33:20;10.90;;;9.03;;
8260;SDS011;64115;50.170;8.242;2023-03-01T11:36:00;12.03;;;8.33;;
8260;SDS011;64115;50.170;8.242;2023-03-01T11:38:56;12.70;;;8.47;;
8260;SDS011;64115;50.170;8.242;2023-03-01T11:41:29;13.63;;;9.27;;
8260;SDS011;64115;50.170;8.242;2023-03-01T11:44:02;11.20;;;8.13;;
8260;SDS011;64115;50.170;8.242;2023-03-01T11:46:41;12.47;;;8.13;;
8260;SDS011;64115;50.170;8.242;2023-03-01T11:49:32;11.23;;;8.80;;
8260;SDS011;64115;50.170;8.242;2023-03-01T11:52:12;10.10;;;8.40;;
8260;SDS011;64115;50.170;8.242;2023-03-01T11:54:51;9.67;;;7.47;;
8260;SDS011;64115;50.170;8.242;2023-03-01T11:57:31;8.93;;;7.63;;
8260;SDS011;64115;50.170;8.242;2023-03-01T12:00:14;11.13;;;8.27;;
8260;SDS011;64115;50.170;8.242;2023-03-01T12:02:53;10.23;;;7.67;;
8260;SDS011;64115;50.170;8.242;2023-03-01T12:05:51;10.20;;;7.87;;
8260;SDS011;64115;50.170;8.242;2023-03-01T12:08:40;9.07;;;7.47;;
8260;SDS011;64115;50.170;8.242;2023-03-01T12:11:20;8.30;;;7.40;;
8260;SDS011;64115;50.170;8.242;2023-03-01T12:14:34;7.63;;;6.13;;
8260;SDS011;64115;50.170;8.242;2023-03-01T12:17:28;9.77;;;7.73;;
8260;SDS011;64115;50.170;8.242;2023-03-01T12:20:20;9.80;;;7.50;;
8260;SDS011;64115;50.170;8.242;2023-03-01T12:22:57;9.40;;;6.80;;
8260;SDS011;64115;50.170;8.242;2023-03-01T12:25:43;7.37;;;6.67;;
8260;SDS011;64115;50.170;8.242;2023-03-01T12:28:17;7.60;;;6.37;;
8260;SDS011;64115;50.170;8.242;2023-03-01T12:31:01;6.60;;;5.90;;
8260;SDS011;64115;50.170;8.242;2023-03-01T12:33:57;7.13;;;6.00;;
8260;SDS011;64115;50.170;8.242;2023-03-01T12:36:45;6.83;;;6.10;;
8260;SDS011;64115;50.170;8.242;2023-03-01T12:39:27;8.97;;;6.20;;
8260;SDS011;64115;50.170;8.242;2023-03-01T12:42:07;7.77;;;6.50;;
8260;SDS011;64115;50.170;8.242;2023-03-01T12:44:48;10.27;;;6.83;;
8260;SDS011;64115;50.170;8.242;2023-03-01T12:47:30;9.40;;;6.63;;
8260;SDS011;64115;50.170;8.242;2023-03-01T12:50:25;8.90;;;6.73;;
8260;SDS011;64115;50.170;8.242;2023-03-01T12:53:02;7.43;;;6.33;;
8260;SDS011;64115;50.170;8.242;2023-03-01T12:55:30;7.53;;;6.73;;
8260;SDS011;64115;50.170;8.242;2023-03-01T12:58:02;8.10;;;6.20;;
8260;SDS011;64115;50.170;8.242;2023-03-01T13:00:35;7.77;;;6.33;;
8260;SDS011;64115;50.170;8.242;2023-03-01T13:03:10;10.03;;;7.17;;
8260;SDS011;64115;50.170;8.242;2023-03-01T13:05:51;7.37;;;5.87;;
8260;SDS011;64115;50.170;8.242;2023-03-01T13:08:29;6.43;;;5.80;;
8260;SDS011;64115;50.170;8.242;2023-03-01T13:11:03;6.40;;;5.73;;
8260;SDS011;64115;50.170;8.242;2023-03-01T13:13:32;7.10;;;5.53;;
8260;SDS011;64115;50.170;8.242;2023-03-01T13:16:19;5.80;;;5.20;;
8260;SDS011;64115;50.170;8.242;2023-03-01T13:18:48;8.30;;;6.13;;
8260;SDS011;64115;50.170;8.242;2023-03-01T13:21:29;6.57;;;5.90;;
8260;SDS011;64115;50.170;8.242;2023-03-01T13:23:57;6.37;;;5.33;;
8260;SDS011;64115;50.170;8.242;2023-03-01T13:26:24;6.33;;;5.20;;
8260;SDS011;64115;50.170;8.242;2023-03-01T13:28:52;6.17;;;4.83;;
8260;SDS011;64115;50.170;8.242;2023-03-01T13:37:10;6.23;;;5.60;;
8260;SDS011;64115;50.170;8.242;2023-03-01T13:39:45;6.73;;;5.53;;
8260;SDS011;64115;50.170;8.242;2023-03-01T13:45:03;6.17;;;5.30;;
8260;SDS011;64115;50.170;8.242;2023-03-01T13:47:40;6.37;;;5.43;;
8260;SDS011;64115;50.170;8.242;2023-03-01T13:50:15;6.37;;;5.77;;
8260;SDS011;64115;50.170;8.242;2023-03-01T13:52:48;8.30;;;5.63;;
8260;SDS011;64115;50.170;8.242;2023-03-01T13:55:19;9.30;;;5.30;;
8260;SDS011;64115;50.170;8.242;2023-03-01T13:57:53;8.13;;;5.60;;
8260;SDS011;64115;50.170;8.242;2023-03-01T14:03:08;5.77;;;5.17;;
8260;SDS011;64115;50.170;8.242;2023-03-01T14:05:38;7.17;;;5.73;;
8260;SDS011;64115;50.170;8.242;2023-03-01T14:08:19;7.10;;;6.03;;
8260;SDS011;64115;50.170;8.242;2023-03-01T14:10:54;6.40;;;5.67;;
8260;SDS011;64115;50.170;8.242;2023-03-01T14:13:38;6.60;;;5.30;;
8260;SDS011;64115;50.170;8.242;2023-03-01T14:16:20;6.20;;;5.60;;
8260;SDS011;64115;50.170;8.242;2023-03-01T14:19:00;6.37;;;5.77;;
8260;SDS011;64115;50.170;8.242;2023-03-01T14:21:38;4.93;;;4.13;;
8260;SDS011;64115;50.170;8.242;2023-03-01T14:24:13;5.50;;;5.00;;
8260;SDS011;64115;50.170;8.242;2023-03-01T14:26:43;5.90;;;5.30;;
8260;SDS011;64115;50.170;8.242;2023-03-01T14:29:23;5.33;;;4.83;;
8260;SDS011;64115;50.170;8.242;2023-03-01T14:31:51;6.27;;;5.03;;
8260;SDS011;64115;50.170;8.242;2023-03-01T14:34:18;6.40;;;5.67;;
8260;SDS011;64115;50.170;8.242;2023-03-01T14:36:47;6.07;;;5.47;;
8260;SDS011;64115;50.170;8.242;2023-03-01T14:39:22;6.67;;;6.00;;
8260;SDS011;64115;50.170;8.242;2023-03-01T14:41:51;7.27;;;5.77;;
8260;SDS011;64115;50.170;8.242;2023-03-01T14:44:20;6.03;;;5.10;;
8260;SDS011;64115;50.170;8.242;2023-03-01T14:46:51;6.57;;;5.80;;
8260;SDS011;64115;50.170;8.242;2023-03-01T14:49:21;7.17;;;5.87;;
8260;SDS011;64115;50.170;8.242;2023-03-01T14:51:52;7.87;;;6.30;;
8260;SDS011;64115;50.170;8.242;2023-03-01T14:54:23;7.77;;;5.63;;
8260;SDS011;64115;50.170;8.242;2023-03-01T14:56:53;8.23;;;6.20;;
8260;SDS011;64115;50.170;8.242;2023-03-01T14:59:24;8.50;;;6.93;;
8260;SDS011;64115;50.170;8.242;2023-03-01T15:01:51;6.87;;;5.90;;
8260;SDS011;64115;50.170;8.242;2023-03-01T15:04:21;7.33;;;6.10;;
8260;SDS011;64115;50.170;8.242;2023-03-01T15:13:22;7.07;;;6.30;;
8260;SDS011;64115;50.170;8.242;2023-03-01T15:19:17;7.50;;;6.03;;
8260;SDS011;64115;50.170;8.242;2023-03-01T15:21:46;6.57;;;5.67;;
8260;SDS011;64115;50.170;8.242;2023-03-01T15:24:16;8.60;;;6.63;;
8260;SDS011;64115;50.170;8.242;2023-03-01T15:26:49;7.90;;;6.37;;
8260;SDS011;64115;50.170;8.242;2023-03-01T15:29:20;7.83;;;5.93;;
8260;SDS011;64115;50.170;8.242;2023-03-01T15:31:56;10.40;;;5.87;;
8260;SDS011;64115;50.170;8.242;2023-03-01T15:34:24;8.00;;;6.47;;